KDHN/DHN METAR and TAF weather

Enter ICAO airport designator
Station Type Date Time Source
KDHN METAR 2018/04/26 14:53 UTC NOAA

KDHN 261453Z 21012KT 10SM OVC110 20/12 A2993 RMK AO2 SLP132 T02000122 50007


Station Type Date Time Source
KDHN Decoded METAR 2018/04/26 14:53 UTC NOAA

DOTHAN AIRPORT, AL, United States (KDHN) 31-19N 085-27W 113M
Apr 26, 2018 - 10:53 AM EDT / 2018.04.26 1453 UTC
Wind: from the SSW (210 degrees) at 14 MPH (12 KT):0
Visibility: 10 mile(s):0
Sky conditions: overcast
Temperature: 68.0 F (20.0 C)
Dew Point: 54.0 F (12.2 C)
Relative Humidity: 60%
Pressure (altimeter): 29.93 in. Hg (1013 hPa)
Pressure tendency: 0.02 inches (0.7 hPa) higher than three hours ago
ob: KDHN 261453Z 21012KT 10SM OVC110 20/12 A2993 RMK AO2 SLP132 T02000122 50007
cycle: 15

Station Type Date Time Source
KDHN TAF 2018/04/26 12:22 UTC NOAA

TAF KDHN 261120Z 2612/2712 VRB03KT P6SM BKN250
FM261400 22010G15KT P6SM BKN050
FM261600 25013G21KT 6SM SHRA VCTS BKN040CB
FM262000 27012G20KT P6SM BKN040
FM270100 28007KT P6SM FEW250


Example: see airport list